Time;durP1;ratioP1;P1;durP2;ratioP2;P2;SDS_P1;SDS_P2;PMS_P1;PMS_P2;Temp;Humidity;BMP_temperature;BMP_pressure;BME280_temperature;BME280_humidity;BME280_pressure;Samples;Min_cycle;Max_cycle;Signal;HPM_P1;HPM_P2
2023/06/19 00:00:06;;;;;;;;;;;;;;;16.41;46.99;100433.75;5057394;28;1036;-60
2023/06/19 00:02:37;;;;;;;;;;;;;;;16.12;46.87;100425.34;5057124;28;1901;-60
2023/06/19 00:05:03;;;;;;;;;;;;;;;16.01;46.77;100423.72;5044970;28;1043;-60
2023/06/19 00:07:28;;;;;;;;;;;;;;;16.05;46.24;100424.81;5056603;28;1056;-60
2023/06/19 00:09:54;;;;;;;;;;;;;;;16.89;47.20;100426.94;5057318;28;1060;-60
2023/06/19 00:12:19;;;;;;;;;;;;;;;16.28;47.83;100431.59;5056953;28;1075;-60
2023/06/19 00:14:45;;;;;;;;;;;;;;;16.22;47.55;100425.28;5057197;28;1072;-60
2023/06/19 00:17:10;;;;;;;;;;;;;;;16.18;46.98;100428.88;5038755;28;1155;-62
2023/06/19 00:19:36;;;;;;;;;;;;;;;16.10;46.60;100432.19;5049138;28;1044;-62
2023/06/19 00:22:03;;;;;;;;;;;;;;;16.07;46.44;100437.16;5056842;28;950;-62
2023/06/19 00:24:28;;;;;;;;;;;;;;;16.12;45.94;100429.97;5057289;28;1902;-62
2023/06/19 00:26:54;;;;;;;;;;;;;;;16.03;46.05;100427.84;5051106;28;1083;-62
2023/06/19 00:29:20;;;;;;;;;;;;;;;16.05;46.07;100422.88;5037325;28;1135;-61
2023/06/19 00:31:45;;;;;;;;;;;;;;;16.06;45.85;100430.00;5024297;28;1262;-62
2023/06/19 00:34:11;;;;;;;;;;;;;;;16.95;47.29;100441.47;5056972;28;1190;-62
2023/06/19 00:36:40;;;;;;;;;;;;;;;16.43;47.86;100437.00;5056947;28;1144;-62
2023/06/19 00:39:07;;;;;;;;;;;;;;;16.25;47.37;100437.63;5057253;28;1065;-62
2023/06/19 00:41:33;;;;;;;;;;;;;;;16.20;46.72;100438.47;5056418;28;1214;-62
2023/06/19 00:43:59;;;;;;;;;;;;;;;16.24;46.31;100433.25;5056508;28;1967;-61
2023/06/19 00:46:25;;;;;;;;;;;;;;;16.14;46.34;100430.53;5057008;28;1112;-62
2023/06/19 00:48:50;;;;;;;;;;;;;;;16.14;46.09;100422.31;5056614;28;1268;-62
2023/06/19 00:51:17;;;;;;;;;;;;;;;16.16;45.64;100442.03;5019423;28;1147;-62
2023/06/19 00:53:44;;;;;;;;;;;;;;;16.10;45.85;100438.50;5050008;28;1226;-60
2023/06/19 00:56:09;;;;;;;;;;;;;;;15.97;46.25;100441.84;5038931;28;1236;-60
2023/06/19 00:58:35;;;;;;;;;;;;;;;15.99;45.83;100440.47;5022321;28;1585;-60
2023/06/19 01:01:00;;;;;;;;;;;;;;;16.00;45.61;100431.13;5056124;28;1020;-60
2023/06/19 01:03:26;;;;;;;;;;;;;;;16.05;45.65;100430.28;5032958;28;1981;-60
2023/06/19 01:05:52;;;;;;;;;;;;;;;16.02;45.49;100437.16;5038333;28;1115;-61
2023/06/19 01:08:17;;;;;;;;;;;;;;;15.90;45.64;100433.88;5056503;28;1127;-60
2023/06/19 01:10:56;;;;;;;;;;;;;;;15.93;45.58;100427.03;5056508;28;1115;-62
2023/06/19 01:13:26;;;;;;;;;;;;;;;15.95;45.46;100416.59;5037684;28;1033;-61
2023/06/19 01:15:52;;;;;;;;;;;;;;;15.95;45.60;100424.81;5030964;28;862;-61
2023/06/19 01:18:17;;;;;;;;;;;;;;;15.90;45.51;100428.41;5019816;28;1266;-61
2023/06/19 01:20:43;;;;;;;;;;;;;;;15.88;45.49;100436.09;5056219;28;1188;-60
2023/06/19 01:23:09;;;;;;;;;;;;;;;15.91;45.33;100430.88;5056035;28;1985;-60
2023/06/19 01:25:35;;;;;;;;;;;;;;;15.87;45.60;100435.25;5056324;28;960;-60
2023/06/19 01:28:01;;;;;;;;;;;;;;;15.80;45.55;100433.91;5055700;28;1075;-60
2023/06/19 01:30:27;;;;;;;;;;;;;;;15.86;45.32;100436.34;5056249;28;1051;-60
2023/06/19 01:32:56;;;;;;;;;;;;;;;15.85;45.69;100432.00;5056198;28;1104;-62
2023/06/19 01:35:26;;;;;;;;;;;;;;;15.80;45.42;100429.25;5055929;28;1028;-61
2023/06/19 01:37:51;;;;;;;;;;;;;;;15.88;45.52;100433.34;5038416;28;1126;-60
2023/06/19 01:40:17;;;;;;;;;;;;;;;16.68;46.67;100438.00;5038332;28;908;-60
2023/06/19 01:42:43;;;;;;;;;;;;;;;16.23;47.50;100432.44;5037397;28;1906;-60
2023/06/19 01:45:09;;;;;;;;;;;;;;;16.01;47.21;100432.75;5038001;28;1119;-61
2023/06/19 01:47:35;;;;;;;;;;;;;;;15.99;46.57;100431.38;5038338;28;1164;-61
2023/06/19 01:50:02;;;;;;;;;;;;;;;15.99;46.36;100432.22;5055709;28;1297;-61
2023/06/19 01:52:28;;;;;;;;;;;;;;;15.94;46.39;100443.19;5036240;28;1176;-58
2023/06/19 01:54:54;;;;;;;;;;;;;;;15.94;46.16;100434.97;5039342;28;1595;-61
2023/06/19 01:57:20;;;;;;;;;;;;;;;16.44;46.35;100437.84;5042936;28;1355;-60
2023/06/19 01:59:46;;;;;;;;;;;;;;;16.56;48.06;100437.50;5038033;28;1278;-60
2023/06/19 02:02:12;;;;;;;;;;;;;;;16.29;47.70;100435.97;5038028;28;1975;-60
2023/06/19 02:04:37;;;;;;;;;;;;;;;16.26;47.41;100433.78;5054799;28;905;-54
2023/06/19 02:07:03;;;;;;;;;;;;;;;16.24;46.48;100438.72;5056115;28;1072;-59
2023/06/19 02:09:28;;;;;;;;;;;;;;;17.00;47.48;100445.00;5038056;28;1257;-53
2023/06/19 02:11:54;;;;;;;;;;;;;;;16.42;47.80;100442.78;5037344;28;1124;-58
2023/06/19 02:14:19;;;;;;;;;;;;;;;16.29;47.47;100440.66;5055474;28;1151;-62
2023/06/19 02:16:46;;;;;;;;;;;;;;;16.28;46.83;100455.47;5035542;28;1196;-59
2023/06/19 02:19:11;;;;;;;;;;;;;;;16.21;46.63;100455.75;5044185;28;1044;-60
2023/06/19 02:21:38;;;;;;;;;;;;;;;16.20;46.07;100459.59;5055602;28;1071;-60
2023/06/19 02:24:04;;;;;;;;;;;;;;;16.07;46.15;100450.88;5037629;28;1981;-61
2023/06/19 02:26:29;;;;;;;;;;;;;;;16.14;45.94;100455.22;5055645;28;1005;-60
2023/06/19 02:28:55;;;;;;;;;;;;;;;16.12;46.08;100469.22;5046640;28;977;-61
2023/06/19 02:31:24;;;;;;;;;;;;;;;16.14;45.68;100461.53;5033128;28;1268;-60
2023/06/19 02:33:50;;;;;;;;;;;;;;;16.01;45.98;100467.59;5055234;28;1028;-60
2023/06/19 02:36:21;;;;;;;;;;;;;;;16.03;45.83;100468.13;5051425;28;1433;-60
2023/06/19 02:38:47;;;;;;;;;;;;;;;16.01;45.60;100465.66;5055504;28;1067;-60
2023/06/19 02:41:14;;;;;;;;;;;;;;;16.66;47.36;100470.44;5030018;28;1243;-60
2023/06/19 02:43:40;;;;;;;;;;;;;;;16.20;47.55;100465.06;5049175;28;1983;-61
2023/06/19 02:46:06;;;;;;;;;;;;;;;16.10;47.41;100476.09;5055335;28;1239;-60
2023/06/19 02:48:33;;;;;;;;;;;;;;;16.10;47.00;100476.09;5055235;28;1167;-62
2023/06/19 02:50:59;;;;;;;;;;;;;;;16.22;46.03;100468.38;5055172;28;1116;-63
2023/06/19 02:53:24;;;;;;;;;;;;;;;16.07;46.08;100478.28;5041716;28;946;-60
2023/06/19 02:55:50;;;;;;;;;;;;;;;16.00;46.17;100483.22;5028323;28;1180;-61
2023/06/19 02:58:16;;;;;;;;;;;;;;;16.05;45.81;100482.41;5052596;28;1075;-57
2023/06/19 03:00:41;;;;;;;;;;;;;;;16.04;45.92;100484.31;5058917;28;1103;-56
2023/06/19 03:03:07;;;;;;;;;;;;;;;16.03;45.78;100485.44;5058500;28;1965;-56
2023/06/19 03:05:32;;;;;;;;;;;;;;;16.63;47.09;100490.19;5051687;28;876;-56
2023/06/19 03:07:58;;;;;;;;;;;;;;;16.20;47.72;100487.03;5052602;28;1243;-55
2023/06/19 03:10:24;;;;;;;;;;;;;;;16.26;46.83;100488.66;5039716;28;1121;-57
2023/06/19 03:12:51;;;;;;;;;;;;;;;16.17;46.65;100487.59;5037566;28;1201;-54
2023/06/19 03:15:16;;;;;;;;;;;;;;;16.15;46.36;100490.59;5040877;28;1164;-55
2023/06/19 03:17:46;;;;;;;;;;;;;;;16.05;46.16;100491.44;5039378;28;1348;-58
2023/06/19 03:20:12;;;;;;;;;;;;;;;16.10;46.03;100487.06;5056251;28;1291;-60
2023/06/19 03:22:42;;;;;;;;;;;;;;;16.05;46.08;100485.16;5040664;28;1981;-58
2023/06/19 03:25:10;;;;;;;;;;;;;;;16.01;46.02;100490.34;5035135;28;1144;-57
2023/06/19 03:27:36;;;;;;;;;;;;;;;15.98;46.19;100479.13;5058388;28;1381;-56
2023/06/19 03:30:06;;;;;;;;;;;;;;;16.04;45.86;100487.06;5027144;28;1183;-56
2023/06/19 03:32:37;;;;;;;;;;;;;;;15.88;46.09;100479.97;5040371;28;1384;-57
2023/06/19 03:35:05;;;;;;;;;;;;;;;15.90;46.09;100478.56;5057914;28;1148;-56
2023/06/19 03:37:33;;;;;;;;;;;;;;;15.88;46.09;100469.81;5040161;28;1185;-57
2023/06/19 03:40:00;;;;;;;;;;;;;;;15.94;46.24;100481.59;5040310;28;1289;-58
2023/06/19 03:42:34;;;;;;;;;;;;;;;16.04;45.71;100476.09;5026303;28;1993;-56
2023/06/19 03:44:59;;;;;;;;;;;;;;;15.98;45.73;100474.47;5028360;28;1309;-56
2023/06/19 03:47:26;;;;;;;;;;;;;;;16.00;45.96;100468.69;5040198;28;1314;-57
2023/06/19 03:49:52;;;;;;;;;;;;;;;17.07;47.15;100480.41;5040070;28;1210;-57
2023/06/19 03:52:18;;;;;;;;;;;;;;;16.33;48.52;100469.97;5056205;28;1144;-58
2023/06/19 03:54:43;;;;;;;;;;;;;;;16.30;47.74;100477.94;5028078;28;1028;-55
2023/06/19 03:57:09;;;;;;;;;;;;;;;16.10;47.64;100478.81;5039467;28;1312;-58
2023/06/19 03:59:35;;;;;;;;;;;;;;;16.10;46.99;100473.34;5057751;28;1095;-56
2023/06/19 04:02:00;;;;;;;;;;;;;;;16.04;46.95;100478.00;5057251;28;991;-52
2023/06/19 04:04:26;;;;;;;;;;;;;;;16.08;46.47;100477.16;5054091;28;1977;-52
2023/06/19 04:06:51;;;;;;;;;;;;;;;16.13;46.47;100486.50;5038756;28;1088;-52
2023/06/19 04:09:17;;;;;;;;;;;;;;;16.08;46.37;100487.34;5057145;28;1214;-52
2023/06/19 04:11:43;;;;;;;;;;;;;;;16.02;46.29;100485.69;5057422;28;1101;-51
2023/06/19 04:14:09;;;;;;;;;;;;;;;16.03;46.40;100481.84;5039647;28;1183;-51
2023/06/19 04:16:35;;;;;;;;;;;;;;;16.03;45.94;100488.19;5056124;28;1226;-49
2023/06/19 04:19:01;;;;;;;;;;;;;;;15.91;46.18;100490.38;5044614;28;1113;-52
2023/06/19 04:21:29;;;;;;;;;;;;;;;15.98;46.01;100501.06;5039430;28;1325;-51
2023/06/19 04:23:55;;;;;;;;;;;;;;;15.97;45.97;100499.41;5039427;28;1985;-53
2023/06/19 04:26:21;;;;;;;;;;;;;;;15.90;46.19;100502.44;5039288;28;1068;-53
2023/06/19 04:28:47;;;;;;;;;;;;;;;15.85;46.30;100497.78;5038992;28;1189;-54
2023/06/19 04:31:12;;;;;;;;;;;;;;;17.14;47.32;100504.78;5042451;28;1168;-52
2023/06/19 04:33:40;;;;;;;;;;;;;;;16.49;48.19;100497.38;5036725;28;1168;-53
2023/06/19 04:36:05;;;;;;;;;;;;;;;16.39;47.61;100512.75;5021470;28;1053;-55
2023/06/19 04:38:31;;;;;;;;;;;;;;;16.22;47.49;100506.78;5056657;28;1098;-54
2023/06/19 04:40:57;;;;;;;;;;;;;;;16.20;47.23;100514.44;5054962;28;1131;-51
2023/06/19 04:43:24;;;;;;;;;;;;;;;16.17;46.92;100517.75;5044897;28;1898;-54
2023/06/19 04:45:50;;;;;;;;;;;;;;;16.03;46.78;100521.09;5055160;28;1112;-57
2023/06/19 04:48:15;;;;;;;;;;;;;;;16.13;46.26;100522.16;5036581;28;1151;-54
2023/06/19 04:50:41;;;;;;;;;;;;;;;16.91;47.28;100520.84;5051320;28;1142;-49
2023/06/19 04:53:06;;;;;;;;;;;;;;;16.46;47.79;100514.41;5056271;28;1035;-51
2023/06/19 04:55:32;;;;;;;;;;;;;;;17.47;46.54;100518.88;5043772;28;1167;-53
2023/06/19 04:57:58;;;;;;;;;;;;;;;17.20;47.36;100520.16;5056687;28;1079;-53
2023/06/19 05:00:23;;;;;;;;;;;;;;;16.85;48.48;100525.50;5056087;28;889;-51
2023/06/19 05:02:49;;;;;;;;;;;;;;;16.77;48.94;100523.34;5056430;28;1973;-52
2023/06/19 05:05:15;;;;;;;;;;;;;;;16.60;49.70;100513.50;5054579;28;1087;-53
2023/06/19 05:07:41;;;;;;;;;;;;;;;16.52;50.38;100510.53;5044525;28;1060;-52
2023/06/19 05:10:07;;;;;;;;;;;;;;;16.43;50.62;100511.09;5041798;28;1139;-51
2023/06/19 05:12:33;;;;;;;;;;;;;;;16.36;51.02;100513.31;5018885;28;1116;-54
2023/06/19 05:14:59;;;;;;;;;;;;;;;16.36;51.41;100507.03;5050934;28;1115;-55
2023/06/19 05:17:25;;;;;;;;;;;;;;;16.25;51.64;100504.28;5048156;28;881;-55
2023/06/19 05:19:50;;;;;;;;;;;;;;;16.19;51.99;100504.59;5050157;28;1128;-55
2023/06/19 05:22:18;;;;;;;;;;;;;;;16.18;52.19;100500.22;5056404;28;1906;-56
2023/06/19 05:24:44;;;;;;;;;;;;;;;16.18;52.47;100505.69;5055356;28;1118;-56
2023/06/19 05:27:09;;;;;;;;;;;;;;;16.10;52.97;100512.56;5055868;28;1144;-57
2023/06/19 05:29:35;;;;;;;;;;;;;;;16.06;52.95;100504.06;5055263;28;1175;-56
2023/06/19 05:32:01;;;;;;;;;;;;;;;16.02;53.43;100502.97;5056062;28;1055;-57
2023/06/19 05:34:26;;;;;;;;;;;;;;;16.02;53.47;100511.19;5055994;28;1080;-57
2023/06/19 05:36:52;;;;;;;;;;;;;;;15.99;53.64;100514.50;5055911;28;1076;-56
2023/06/19 05:39:18;;;;;;;;;;;;;;;15.94;53.80;100521.91;5055978;28;1067;-57
2023/06/19 05:41:45;;;;;;;;;;;;;;;15.93;54.00;100512.03;5054134;28;1165;-58
2023/06/19 05:44:14;;;;;;;;;;;;;;;15.92;54.09;100519.41;5036008;28;1977;-57
2023/06/19 05:46:40;;;;;;;;;;;;;;;15.89;54.10;100519.97;5051597;28;1075;-59
2023/06/19 05:49:06;;;;;;;;;;;;;;;15.85;54.14;100519.72;5055806;28;1241;-58
2023/06/19 05:51:31;;;;;;;;;;;;;;;15.85;54.42;100540.81;5055227;28;1071;-57
2023/06/19 05:54:02;;;;;;;;;;;;;;;15.79;54.44;100530.94;5036165;28;1246;-57
2023/06/19 05:56:28;;;;;;;;;;;;;;;15.80;54.43;100544.38;5052359;28;1222;-57
2023/06/19 05:58:54;;;;;;;;;;;;;;;15.80;54.80;100541.66;5055319;28;1195;-54
2023/06/19 06:01:19;;;;;;;;;;;;;;;15.77;54.71;100533.94;5055700;28;1218;-55
2023/06/19 06:03:45;;;;;;;;;;;;;;;15.71;54.98;100535.03;5056032;28;1977;-56
2023/06/19 06:06:10;;;;;;;;;;;;;;;15.74;54.68;100535.31;5055050;28;1030;-58
2023/06/19 06:08:36;;;;;;;;;;;;;;;16.42;54.11;100541.56;5055717;28;1320;-57
2023/06/19 06:11:04;;;;;;;;;;;;;;;17.15;52.92;100542.16;5055818;28;1210;-57
2023/06/19 06:13:30;;;;;;;;;;;;;;;16.47;54.59;100536.09;5055668;28;1285;-58
2023/06/19 06:15:56;;;;;;;;;;;;;;;16.30;55.15;100535.56;5055541;28;1265;-60
2023/06/19 06:18:21;;;;;;;;;;;;;;;16.16;55.15;100518.84;5055727;28;1276;-59
2023/06/19 06:20:47;;;;;;;;;;;;;;;16.08;55.48;100526.53;5055770;28;1300;-60
2023/06/19 06:23:13;;;;;;;;;;;;;;;16.02;55.56;100511.19;5055519;28;1961;-60
2023/06/19 06:25:38;;;;;;;;;;;;;;;15.97;55.60;100502.16;5055632;28;1226;-60
2023/06/19 06:28:05;;;;;;;;;;;;;;;15.99;55.54;100498.06;5055731;28;1257;-63
2023/06/19 06:30:30;;;;;;;;;;;;;;;15.94;55.54;100478.03;5059062;28;973;-62
2023/06/19 06:32:56;;;;;;;;;;;;;;;15.90;55.37;100477.75;5059378;28;1309;-61
2023/06/19 06:35:21;;;;;;;;;;;;;;;15.84;55.62;100485.16;5059366;28;1222;-59
2023/06/19 06:37:49;;;;;;;;;;;;;;;15.83;55.81;100466.25;5059294;28;1270;-61
2023/06/19 06:40:15;;;;;;;;;;;;;;;15.85;55.52;100461.31;5059335;28;1245;-61
2023/06/19 06:42:40;;;;;;;;;;;;;;;15.82;55.83;100459.13;5058303;28;1906;-60
2023/06/19 06:45:07;;;;;;;;;;;;;;;15.89;55.98;100457.75;5040989;28;1326;-56
2023/06/19 06:47:32;;;;;;;;;;;;;;;17.37;54.09;100451.88;5056274;28;1029;-58
2023/06/19 06:49:58;;;;;;;;;;;;;;;16.73;55.97;100472.84;5057336;28;1104;-57
2023/06/19 06:52:24;;;;;;;;;;;;;;;16.43;56.50;100456.22;5059118;28;1270;-59
2023/06/19 06:54:50;;;;;;;;;;;;;;;16.29;56.54;100457.13;5040903;28;1333;-60
2023/06/19 06:57:16;;;;;;;;;;;;;;;16.21;56.68;100456.56;5059261;28;1159;-60
2023/06/19 06:59:43;;;;;;;;;;;;;;;16.18;56.33;100467.28;5059117;28;1329;-58
2023/06/19 07:02:08;;;;;;;;;;;;;;;16.15;56.35;100467.84;5059269;28;1309;-56
2023/06/19 07:04:34;;;;;;;;;;;;;;;16.06;56.66;100465.66;5059058;28;1991;-57
2023/06/19 07:06:59;;;;;;;;;;;;;;;16.06;56.52;100476.63;5058978;28;881;-58
2023/06/19 07:09:25;;;;;;;;;;;;;;;15.99;56.83;100481.59;5059133;28;1365;-58
2023/06/19 07:11:51;;;;;;;;;;;;;;;16.01;56.54;100471.16;5057999;28;989;-58
2023/06/19 07:14:17;;;;;;;;;;;;;;;15.96;56.51;100475.84;5058004;28;1356;-60
2023/06/19 07:16:46;;;;;;;;;;;;;;;15.92;56.41;100481.03;5058673;28;1409;-60
2023/06/19 07:19:12;;;;;;;;;;;;;;;15.98;56.09;100479.13;5058672;28;1115;-60
2023/06/19 07:21:38;;;;;;;;;;;;;;;15.91;56.46;100473.94;5058460;28;1395;-59
2023/06/19 07:24:04;;;;;;;;;;;;;;;15.90;56.25;100483.25;5058775;28;1898;-61
2023/06/19 07:26:29;;;;;;;;;;;;;;;15.86;56.47;100482.97;5040833;28;1273;-59
2023/06/19 07:28:55;;;;;;;;;;;;;;;15.82;56.40;100483.78;5059074;28;1301;-56
2023/06/19 07:31:21;;;;;;;;;;;;;;;15.81;56.49;100479.41;5058325;28;1313;-57
2023/06/19 07:33:46;;;;;;;;;;;;;;;15.81;56.69;100474.75;5058633;28;1380;-56
2023/06/19 07:36:13;;;;;;;;;;;;;;;15.75;56.45;100489.53;5058010;28;1116;-55
2023/06/19 07:38:42;;;;;;;;;;;;;;;15.78;56.41;100486.25;5057711;28;1060;-58
2023/06/19 07:41:09;;;;;;;;;;;;;;;16.83;56.45;100481.03;5057726;28;1246;-58
2023/06/19 07:43:35;;;;;;;;;;;;;;;16.98;56.79;100499.38;5058278;28;1906;-58
2023/06/19 07:46:01;;;;;;;;;;;;;;;16.48;57.73;100498.47;5057939;28;1344;-52
2023/06/19 07:48:26;;;;;;;;;;;;;;;16.33;57.56;100508.41;5057949;28;1193;-54
2023/06/19 07:50:53;;;;;;;;;;;;;;;16.28;57.48;100505.66;5057003;28;1124;-55
2023/06/19 07:53:18;;;;;;;;;;;;;;;16.16;57.16;100514.19;5057293;28;1412;-55
2023/06/19 07:55:44;;;;;;;;;;;;;;;16.14;57.14;100515.56;5057179;28;872;-54
2023/06/19 07:58:09;;;;;;;;;;;;;;;16.07;56.86;100521.34;5061978;28;1051;-55
2023/06/19 08:00:35;;;;;;;;;;;;;;;16.04;56.94;100525.44;5057655;28;1163;-55
2023/06/19 08:03:01;;;;;;;;;;;;;;;16.05;56.53;100529.84;5057505;28;1972;-55
2023/06/19 08:05:26;;;;;;;;;;;;;;;16.01;56.53;100522.47;5057752;28;1043;-55
2023/06/19 08:07:52;;;;;;;;;;;;;;;16.01;56.63;100530.69;5042830;28;938;-55
2023/06/19 08:10:17;;;;;;;;;;;;;;;15.98;56.38;100523.00;5056564;28;1016;-52
2023/06/19 08:12:43;;;;;;;;;;;;;;;15.89;56.69;100547.41;5056790;28;1063;-55
2023/06/19 08:15:09;;;;;;;;;;;;;;;15.88;56.28;100563.03;5057359;28;1171;-55
2023/06/19 08:17:35;;;;;;;;;;;;;;;15.84;56.38;100556.47;5056989;28;1099;-55
2023/06/19 08:20:00;;;;;;;;;;;;;;;15.83;56.28;100567.69;5041074;28;1028;-55
2023/06/19 08:22:26;;;;;;;;;;;;;;;15.82;56.33;100561.41;5036798;28;1991;-55
2023/06/19 08:24:51;;;;;;;;;;;;;;;16.81;56.58;100578.53;5052501;28;1017;-55
2023/06/19 08:27:17;;;;;;;;;;;;;;;17.13;56.69;100586.41;5057625;28;1060;-54
2023/06/19 08:29:43;;;;;;;;;;;;;;;16.63;57.29;100583.50;5056943;28;1128;-54
2023/06/19 08:32:09;;;;;;;;;;;;;;;16.37;57.58;100585.50;5048823;28;928;-55
2023/06/19 08:34:34;;;;;;;;;;;;;;;16.24;57.09;100590.47;5049862;28;1052;-55
2023/06/19 08:37:00;;;;;;;;;;;;;;;16.20;56.97;100591.25;5044545;28;1100;-55
2023/06/19 08:39:26;;;;;;;;;;;;;;;16.15;56.73;100600.34;5038513;28;1405;-55
2023/06/19 08:41:53;;;;;;;;;;;;;;;16.13;56.74;100597.06;5057205;28;1154;-54
2023/06/19 08:44:18;;;;;;;;;;;;;;;16.08;56.32;100600.59;5043157;28;2053;-55
2023/06/19 08:46:44;;;;;;;;;;;;;;;16.06;56.30;100597.31;5044842;28;1214;-55
2023/06/19 08:49:12;;;;;;;;;;;;;;;15.99;56.64;100601.41;5056761;28;1211;-55
2023/06/19 08:51:38;;;;;;;;;;;;;;;15.96;56.42;100600.03;5056520;28;1060;-55
2023/06/19 08:54:05;;;;;;;;;;;;;;;15.95;56.14;100595.69;5039131;28;1389;-53
2023/06/19 08:56:34;;;;;;;;;;;;;;;15.89;56.30;100602.25;5049311;28;1204;-54
2023/06/19 08:59:15;;;;;;;;;;;;;;;15.86;56.26;100608.28;5051831;28;1123;-54
2023/06/19 09:01:51;;;;;;;;;;;;;;;15.84;56.13;100611.28;5056620;28;1159;-55
2023/06/19 09:04:17;;;;;;;;;;;;;;;16.74;56.68;100607.09;5056855;28;1967;-55
2023/06/19 09:06:56;;;;;;;;;;;;;;;17.07;56.65;100610.31;5056440;28;1103;-55
2023/06/19 09:09:22;;;;;;;;;;;;;;;16.52;57.65;100609.34;5039084;28;936;-54
2023/06/19 09:12:00;;;;;;;;;;;;;;;16.30;57.70;100615.13;5049867;28;1079;-55
2023/06/19 09:14:32;;;;;;;;;;;;;;;16.29;57.21;100617.06;5056429;28;920;-54
2023/06/19 09:16:58;;;;;;;;;;;;;;;16.19;57.17;100617.88;5055374;28;1124;-57
2023/06/19 09:19:24;;;;;;;;;;;;;;;16.19;56.75;100628.06;5056030;28;1123;-54
2023/06/19 09:21:49;;;;;;;;;;;;;;;16.10;56.68;100630.50;5056214;28;1044;-55
2023/06/19 09:24:16;;;;;;;;;;;;;;;16.13;56.33;100629.13;5038227;28;1906;-54
2023/06/19 09:26:42;;;;;;;;;;;;;;;16.06;56.68;100635.72;5056311;28;1230;-54
2023/06/19 09:29:14;;;;;;;;;;;;;;;16.03;56.29;100643.66;5055840;28;1071;-55
2023/06/19 09:31:41;;;;;;;;;;;;;;;15.98;56.51;100639.00;5056038;28;1148;-54
2023/06/19 09:34:07;;;;;;;;;;;;;;;15.98;56.08;100639.00;5056245;28;1079;-54
2023/06/19 09:36:33;;;;;;;;;;;;;;;15.96;56.15;100634.88;5051120;28;1132;-54
2023/06/19 09:38:59;;;;;;;;;;;;;;;15.95;56.03;100634.06;5029945;28;1228;-54
2023/06/19 09:41:25;;;;;;;;;;;;;;;15.93;56.06;100633.50;5055750;28;1183;-54
2023/06/19 09:43:50;;;;;;;;;;;;;;;15.86;56.16;100635.69;5055105;28;1894;-54
2023/06/19 09:46:18;;;;;;;;;;;;;;;15.90;56.06;100623.09;5025177;28;1104;-54
2023/06/19 09:48:44;;;;;;;;;;;;;;;16.52;56.86;100628.56;5055824;28;1170;-54
2023/06/19 09:51:11;;;;;;;;;;;;;;;17.50;56.32;100625.50;5055903;28;1182;-53
2023/06/19 09:53:36;;;;;;;;;;;;;;;16.74;57.45;100629.06;5056388;28;1020;-55
2023/06/19 09:56:02;;;;;;;;;;;;;;;16.58;57.55;100621.97;5050959;28;1056;-54
2023/06/19 09:58:28;;;;;;;;;;;;;;;16.46;57.22;100615.94;5036253;28;1183;-55
2023/06/19 10:00:53;;;;;;;;;;;;;;;16.34;57.17;100610.75;5053758;28;1071;-54
2023/06/19 10:03:19;;;;;;;;;;;;;;;17.14;56.22;100617.44;5058284;28;1965;-54
2023/06/19 10:05:44;;;;;;;;;;;;;;;18.58;52.32;100617.28;5059984;28;1067;-55
2023/06/19 10:08:10;;;;;;;;;;;;;;;19.39;50.00;100600.09;5048782;28;1551;-55
2023/06/19 10:10:36;;;;;;;;;;;;;;;20.02;48.36;100595.31;5044389;28;1139;-52
2023/06/19 10:13:14;;;;;;;;;;;;;;;19.34;49.95;100604.84;5060245;28;1087;-54
2023/06/19 10:15:41;;;;;;;;;;;;;;;17.77;53.74;100601.16;5040854;28;1132;-55
2023/06/19 10:18:07;;;;;;;;;;;;;;;17.49;55.84;100601.88;5034031;28;984;-59
2023/06/19 10:20:33;;;;;;;;;;;;;;;19.48;50.92;100609.31;5058784;28;1100;-58
2023/06/19 10:22:59;;;;;;;;;;;;;;;19.19;51.19;100603.13;5053822;28;1906;-59
2023/06/19 10:25:26;;;;;;;;;;;;;;;18.00;54.67;100609.00;5058915;28;1254;-58
2023/06/19 10:27:52;;;;;;;;;;;;;;;17.57;55.14;100601.28;5059273;28;1222;-61
2023/06/19 10:30:21;;;;;;;;;;;;;;;17.33;54.98;100612.94;5060340;28;1187;-60
2023/06/19 10:32:47;;;;;;;;;;;;;;;18.57;54.65;100617.56;5058661;28;1020;-60
2023/06/19 10:35:13;;;;;;;;;;;;;;;20.06;50.46;100607.38;5059543;28;1297;-60
2023/06/19 10:37:39;;;;;;;;;;;;;;;18.41;54.03;100620.47;5059612;28;1206;-60
2023/06/19 10:40:12;;;;;;;;;;;;;;;17.92;54.67;100621.41;5058915;28;1250;-57
2023/06/19 10:42:38;;;;;;;;;;;;;;;17.55;54.95;100606.25;5059144;28;1938;-60
2023/06/19 10:45:08;;;;;;;;;;;;;;;17.36;54.92;100606.06;5058691;28;1048;-56
2023/06/19 10:47:34;;;;;;;;;;;;;;;18.90;54.34;100613.13;5059420;28;1083;-58
2023/06/19 10:49:59;;;;;;;;;;;;;;;19.75;51.70;100613.34;5059160;28;1178;-57
2023/06/19 10:52:25;;;;;;;;;;;;;;;18.35;54.65;100618.88;5058514;28;1027;-58
2023/06/19 10:54:54;;;;;;;;;;;;;;;17.86;55.39;100614.28;5040728;28;1056;-58
2023/06/19 10:57:29;;;;;;;;;;;;;;;17.53;55.36;100616.69;5054321;28;962;-58
2023/06/19 10:59:54;;;;;;;;;;;;;;;17.42;55.15;100605.75;5059108;28;1118;-58
2023/06/19 11:02:20;;;;;;;;;;;;;;;18.09;57.05;100607.25;5058108;28;1293;-58
2023/06/19 11:04:45;;;;;;;;;;;;;;;19.80;53.29;100599.50;5040653;28;1982;-58
2023/06/19 11:07:11;;;;;;;;;;;;;;;18.69;55.05;100601.47;5058900;28;1151;-56
2023/06/19 11:09:36;;;;;;;;;;;;;;;18.04;55.69;100597.13;5040538;28;1301;-59
2023/06/19 11:12:02;;;;;;;;;;;;;;;17.65;55.87;100586.13;5057439;28;1257;-59
2023/06/19 11:14:28;;;;;;;;;;;;;;;17.55;55.33;100603.50;5058370;28;1052;-57
2023/06/19 11:16:54;;;;;;;;;;;;;;;17.41;55.13;100595.88;5058786;28;1116;-57
2023/06/19 11:19:20;;;;;;;;;;;;;;;17.47;57.28;100595.84;5057893;28;1106;-57
2023/06/19 11:21:46;;;;;;;;;;;;;;;19.30;55.52;100594.41;5046117;28;1143;-57
2023/06/19 11:24:12;;;;;;;;;;;;;;;19.07;55.25;100592.50;5056901;28;1906;-57
2023/06/19 11:26:38;;;;;;;;;;;;;;;18.24;56.05;100589.78;5045181;28;1074;-57
2023/06/19 11:29:20;;;;;;;;;;;;;;;17.99;55.86;100586.13;5058542;28;1147;-57
2023/06/19 11:31:46;;;;;;;;;;;;;;;17.68;55.79;100591.84;5039729;28;1044;-57
2023/06/19 11:34:12;;;;;;;;;;;;;;;17.52;55.54;100582.06;5042365;28;1096;-57
2023/06/19 11:36:38;;;;;;;;;;;;;;;17.34;55.72;100570.63;5048560;28;1036;-57
2023/06/19 11:39:05;;;;;;;;;;;;;;;17.56;57.53;100580.41;5058230;28;1144;-56
2023/06/19 11:41:30;;;;;;;;;;;;;;;19.23;56.65;100584.88;5058539;28;1072;-57
2023/06/19 11:44:14;;;;;;;;;;;;;;;19.34;55.69;100577.28;5054498;28;1994;-57
2023/06/19 11:46:41;;;;;;;;;;;;;;;18.30;56.61;100572.94;5033107;28;1128;-57
2023/06/19 11:49:20;;;;;;;;;;;;;;;16.87;60.30;100582.91;5039808;28;1337;-57
2023/06/19 11:51:46;;;;;;;;;;;;;;;16.36;65.07;100581.13;5039954;28;1060;-57
2023/06/19 11:54:14;;;;;;;;;;;;;;;17.12;59.74;100583.94;5038978;28;1256;-57
2023/06/19 11:56:40;;;;;;;;;;;;;;;17.34;56.26;100581.63;5053976;28;1183;-57
2023/06/19 11:59:05;;;;;;;;;;;;;;;17.47;54.31;100584.84;5046789;28;1143;-57
2023/06/19 12:01:31;;;;;;;;;;;;;;;17.49;53.35;100574.38;5057716;28;1139;-57
2023/06/19 12:03:57;;;;;;;;;;;;;;;17.47;52.58;100571.91;5057131;28;1898;-57
2023/06/19 12:06:23;;;;;;;;;;;;;;;17.40;51.91;100580.50;5057059;28;1012;-57
2023/06/19 12:08:48;;;;;;;;;;;;;;;17.34;51.61;100580.81;5048848;28;845;-57
2023/06/19 12:11:14;;;;;;;;;;;;;;;17.34;51.30;100580.81;5037327;28;1207;-57
2023/06/19 12:13:40;;;;;;;;;;;;;;;17.33;51.06;100566.22;5037514;28;1151;-57
2023/06/19 12:16:06;;;;;;;;;;;;;;;17.28;50.88;100572.56;5037325;28;1206;-57
2023/06/19 12:18:31;;;;;;;;;;;;;;;17.27;50.70;100565.44;5044443;28;1119;-57
2023/06/19 12:20:57;;;;;;;;;;;;;;;17.23;50.48;100574.53;5056645;28;1179;-57
2023/06/19 12:23:22;;;;;;;;;;;;;;;17.22;50.08;100562.72;5044880;28;1977;-57
2023/06/19 12:25:48;;;;;;;;;;;;;;;17.21;50.06;100576.75;5055526;28;1020;-57
2023/06/19 12:28:18;;;;;;;;;;;;;;;17.21;50.21;100565.75;5057257;28;1234;-57
2023/06/19 12:30:44;;;;;;;;;;;;;;;17.24;49.76;100556.94;5057049;28;1119;-57
2023/06/19 12:33:09;;;;;;;;;;;;;;;17.27;49.74;100553.63;5048967;28;937;-57
2023/06/19 12:35:35;;;;;;;;;;;;;;;17.22;49.44;100556.41;5037200;28;1144;-57
2023/06/19 12:38:01;;;;;;;;;;;;;;;17.24;49.56;100546.78;5057592;28;991;-57
2023/06/19 12:40:26;;;;;;;;;;;;;;;17.19;49.24;100545.97;5056284;28;1288;-57
2023/06/19 12:42:52;;;;;;;;;;;;;;;17.20;49.33;100553.13;5055108;28;1980;-57